Tiempo atmosférico en la estación meteorológica de Alosno, Huelva (276 m.)

Fecha
DESCASC
Temp. máxima en grados centígrados (hora)
DESCASC
Temp. mínima en grados centígrados (hora)
DESCASC
Temp. media en grados centígrados
DESCASC
Racha de viento máxima en m/sg (hora)
DESCASC
Velocidad máxima media en intervalos de 10 minutos(hora)
DESCASC
Precipitaciones diarias en mm
DESCASC
Precipitaciones de 00:00 a 06:00 en mm
DESCASC
Precipitaciones de 06:00 a 12:00 en mm
DESCASC
Precipitaciones de 12:00 a 18:00 en mm
DESCASC
Precipitaciones de 18:00 a 24:00 en mm
DESCASC

Gráficas

Temp. máximas Temp. mínimas Temp. medias Precipitaciones Rachas de viento máximas Velocidades máximas media en intervalos de 10 minutos

Datos horarios

Fecha y hora oficial Temperatura (ºC) Velocidad del viento (km/h) Dirección del viento Racha (km/h) Dirección de racha Precipitación (mm) Presión (hPa) Tendencia (hPa) Humedad (%)
2017-09-23 23:00:00 22.4 11 Noroeste 23 Oeste 0 -- -- 57
2017-09-23 22:00:00 23.4 10 Sudoeste 20 Sudoeste 0 -- -- 54
2017-09-23 21:00:00 25.2 10 Sudoeste 24 Sudoeste 0 -- -- 49
2017-09-23 20:00:00 27.8 14 Sudoeste 25 Sudoeste 0 -- -- 42
2017-09-23 19:00:00 30.5 4 Sur 15 Norte 0 -- -- 27
2017-09-23 18:00:00 30.1 9 Norte 15 Norte 0 -- -- 28
2017-09-23 17:00:00 30.1 6 Nordeste 14 Nordeste 0 -- -- 29
2017-09-23 16:00:00 29.5 5 Nordeste 22 Este 0 -- -- 33
2017-09-23 15:00:00 29.3 6 Sur 14 Este 0 -- -- 35
2017-09-23 14:00:00 27.9 9 Sudeste 13 Sudeste 0 -- -- 37
2017-09-23 13:00:00 26.8 4 Sur 15 Sur 0 -- -- 43
2017-09-23 12:00:00 25.2 9 Sur 16 Sudoeste 0 -- -- 48
2017-09-23 11:00:00 23.9 3 Sur 5 Este 0 -- -- 50
2017-09-23 10:00:00 20.5 3 Este 6 Este 0 -- -- 56
2017-09-23 09:00:00 16.9 3 Este 6 Este 0 -- -- 70
2017-09-23 08:00:00 15.5 0 Calma 5 Norte 0 -- -- 79
2017-09-23 07:00:00 15.6 3 Norte 9 Noroeste 0 -- -- 78
2017-09-23 06:00:00 15.8 3 Noroeste 8 Noroeste 0 -- -- 75
2017-09-23 05:00:00 16.9 4 Noroeste 7 Noroeste 0 -- -- 70
2017-09-23 04:00:00 17.8 3 Sudoeste 8 Oeste 0 -- -- 65
2017-09-23 03:00:00 18.1 4 Oeste 10 Oeste 0 -- -- 65
2017-09-23 02:00:00 18.6 6 Oeste 17 Oeste 0 -- -- 62
2017-09-23 01:00:00 19.6 10 Noroeste 22 Oeste 0 -- -- 59
2017-09-23 00:00:00 21.5 12 Oeste 17 Oeste 0 -- -- 52
2017-09-22 23:00:00 21.7 6 Oeste 12 Oeste 0 -- -- 47
2017-09-22 22:00:00 22.4 7 Sudoeste 13 Sudoeste 0 -- -- 46
2017-09-22 21:00:00 23.9 9 Sudoeste 17 Sudoeste 0 -- -- 44
2017-09-22 20:00:00 26.4 14 Sudoeste 26 Sudoeste 0 -- -- 40
2017-09-22 19:00:00 28.8 13 Sudoeste 21 Sudoeste 0 -- -- 34
2017-09-22 18:00:00 29.4 10 Oeste 22 Noroeste 0 -- -- 28
2017-09-22 17:00:00 29.2 8 Noroeste 19 Sudoeste 0 -- -- 30
2017-09-22 16:00:00 28.8 7 Oeste 20 Oeste 0 -- -- 30
2017-09-22 15:00:00 27.6 8 Noroeste 19 Oeste 0 -- -- 36
2017-09-22 14:00:00 25.6 5 Noroeste 15 Noroeste 0 -- -- 41
2017-09-22 13:00:00 22.7 9 Noroeste 21 Noroeste 0 -- -- 54
2017-09-22 12:00:00 20.2 14 Noroeste 20 Noroeste 0 -- -- 66
2017-09-22 11:00:00 16.9 14 Noroeste 21 Noroeste 0 -- -- 80
2017-09-22 10:00:00 14.1 15 Noroeste 26 Noroeste 0 -- -- 92
2017-09-22 09:00:00 13 14 Noroeste 22 Noroeste 0 -- -- 97
2017-09-22 08:00:00 13.1 14 Noroeste 28 Noroeste 0 -- -- 96
2017-09-22 07:00:00 13.7 18 Noroeste 30 Noroeste 0 -- -- 95
2017-09-22 06:00:00 14.4 15 Noroeste 27 Noroeste 0 -- -- 91
2017-09-22 05:00:00 15.3 15 Noroeste 29 Noroeste 0 -- -- 88
2017-09-22 04:00:00 16.6 16 Noroeste 24 Noroeste 0 -- -- 83
2017-09-22 03:00:00 17.9 14 Noroeste 23 Noroeste 0 -- -- 77
2017-09-22 02:00:00 19 11 Noroeste 23 Noroeste 0 -- -- 70
2017-09-22 01:00:00 20.2 15 Noroeste 22 Noroeste 0 -- -- 63
2017-09-22 00:00:00 20.9 13 Noroeste 19 Noroeste 0 -- -- 55
2017-09-21 23:00:00 21.9 12 Noroeste 15 Noroeste 0 -- -- 47
2017-09-21 22:00:00 23.3 8 Noroeste 11 Noroeste 0 -- -- 42
2017-09-21 21:00:00 24.9 8 Noroeste 23 Noroeste 0 -- -- 39
2017-09-21 20:00:00 27.3 13 Noroeste 26 Noroeste 0 -- -- 34
2017-09-21 19:00:00 28 18 Noroeste 31 Noroeste 0 -- -- 30
2017-09-21 18:00:00 29.1 16 Noroeste 34 Noroeste 0 -- -- 29
2017-09-21 17:00:00 29.6 10 Noroeste 20 Oeste 0 -- -- 28
2017-09-21 16:00:00 30.1 10 Sudoeste 26 Oeste 0 -- -- 28
2017-09-21 15:00:00 28.7 9 Oeste 23 Sudoeste 0 -- -- 30
2017-09-21 14:00:00 27.4 14 Noroeste 22 Noroeste 0 -- -- 31
2017-09-21 13:00:00 26.4 12 Noroeste 19 Noroeste 0 -- -- 34
2017-09-21 12:00:00 23.2 9 Noroeste 18 Noroeste 0 -- -- 44
2017-09-21 11:00:00 20.1 11 Noroeste 15 Noroeste 0 -- -- 55
2017-09-21 10:00:00 17.6 7 Noroeste 14 Oeste 0 -- -- 63
2017-09-21 09:00:00 16 6 Oeste 11 Oeste 0 -- -- 67
2017-09-21 08:00:00 16.2 8 Oeste 13 Noroeste 0 -- -- 62
2017-09-21 07:00:00 16.3 8 Noroeste 13 Noroeste 0 -- -- 62
2017-09-21 06:00:00 17.3 4 Oeste 9 Oeste 0 -- -- 55
2017-09-21 05:00:00 17.1 4 Oeste 14 Noroeste 0 -- -- 54
2017-09-21 04:00:00 17.2 10 Noroeste 20 Noroeste 0 -- -- 54
2017-09-21 03:00:00 18.2 14 Noroeste 18 Noroeste 0 -- -- 54
2017-09-21 02:00:00 19.5 10 Noroeste 17 Noroeste 0 -- -- 48
2017-09-21 01:00:00 20 10 Noroeste 18 Noroeste 0 -- -- 47
2017-09-21 00:00:00 20.9 9 Oeste 16 Oeste 0 -- -- 49
2017-09-20 23:00:00 22.1 11 Oeste 15 Oeste 0 -- -- 44
2017-09-20 22:00:00 22.5 9 Oeste 17 Sudoeste 0 -- -- 45
2017-09-20 21:00:00 23.7 13 Sudoeste 22 Sur 0 -- -- 43
2017-09-20 20:00:00 26.1 18 Sur 24 Sur 0 -- -- 38
2017-09-20 19:00:00 27.8 17 Sur 24 Sur 0 -- -- 35
2017-09-20 18:00:00 28.4 15 Sur 30 Sur 0 -- -- 32
2017-09-20 17:00:00 29.2 17 Sur 26 Sur 0 -- -- 33
2017-09-20 16:00:00 29.4 13 Sur 27 Sur 0 -- -- 29
2017-09-20 15:00:00 28.6 17 Sudoeste 28 Sur 0 -- -- 35
2017-09-20 14:00:00 27.4 13 Sudeste 24 Sur 0 -- -- 37
2017-09-20 13:00:00 26.6 11 Sur 21 Sur 0 -- -- 41
2017-09-20 12:00:00 24.2 6 Sudeste 16 Este 0 -- -- 48
2017-09-20 11:00:00 21.3 12 Este 23 Sudeste 0 -- -- 55
2017-09-20 10:00:00 19.4 4 Sudeste 15 Sur 0 -- -- 59
2017-09-20 09:00:00 15.3 3 Sur 10 Oeste 0 -- -- 79
2017-09-20 08:00:00 14.9 5 Oeste 13 Oeste 0 -- -- 80
2017-09-20 07:00:00 15.3 8 Noroeste 14 Oeste 0 -- -- 81
2017-09-20 06:00:00 15.7 7 Oeste 15 Oeste 0 -- -- 78
2017-09-20 05:00:00 16 9 Noroeste 17 Noroeste 0 -- -- 78
2017-09-20 04:00:00 16.7 10 Noroeste 22 Noroeste 0 -- -- 75
2017-09-20 03:00:00 17.5 15 Noroeste 22 Noroeste 0 -- -- 71
2017-09-20 02:00:00 18.2 14 Noroeste 22 Noroeste 0 -- -- 67
2017-09-20 01:00:00 19.1 12 Noroeste 19 Noroeste 0 -- -- 63
2017-09-20 00:00:00 20.5 12 Noroeste 21 Noroeste 0 -- -- 53
2017-09-19 23:00:00 22.7 9 Noroeste 17 Noroeste 0 -- -- 45
2017-09-19 22:00:00 23.7 10 Oeste 13 Oeste 0 -- -- 41
2017-09-19 21:00:00 25.1 6 Oeste 17 Oeste 0 -- -- 34
2017-09-19 20:00:00 27.5 11 Noroeste 21 Noroeste 0 -- -- 33
2017-09-19 19:00:00 28.4 12 Noroeste 23 Noroeste 0 -- -- 33
2017-09-19 18:00:00 28.8 12 Oeste 23 Noroeste 0 -- -- 33
2017-09-19 17:00:00 28.4 9 Noroeste 23 Noroeste 0 -- -- 35
2017-09-19 16:00:00 27.8 6 Noroeste 21 Este 0 -- -- 37
2017-09-19 15:00:00 26.8 8 Norte 25 Este 0 -- -- 38
2017-09-19 14:00:00 26 9 Sudoeste 22 Oeste 0 -- -- 42
2017-09-19 13:00:00 23.2 12 Noroeste 21 Noroeste 0 -- -- 52
2017-09-19 12:00:00 20.5 14 Noroeste 21 Noroeste 0 -- -- 63
2017-09-19 11:00:00 17.5 13 Noroeste 23 Oeste 0 -- -- 76
2017-09-19 10:00:00 15 13 Oeste 21 Oeste 0 -- -- 86
2017-09-19 09:00:00 13.1 13 Noroeste 22 Noroeste 0 -- -- 92
2017-09-19 08:00:00 12.8 13 Noroeste 21 Noroeste 0 -- -- 91
2017-09-19 07:00:00 13.7 13 Noroeste 22 Noroeste 0 -- -- 88
2017-09-19 06:00:00 14.3 14 Noroeste 26 Noroeste 0 -- -- 85
2017-09-19 05:00:00 14.9 15 Noroeste 25 Noroeste 0 -- -- 81
2017-09-19 04:00:00 15.5 15 Noroeste 24 Noroeste 0 -- -- 79
2017-09-19 03:00:00 16.6 13 Noroeste 20 Noroeste 0 -- -- 73
2017-09-19 02:00:00 16.7 12 Noroeste 19 Noroeste 0 -- -- 69
2017-09-19 01:00:00 17.1 5 Noroeste 24 Noroeste 0 -- -- 65
2017-09-19 00:00:00 18.3 17 Noroeste 26 Noroeste 0 -- -- 61
2017-09-18 23:00:00 19.6 16 Noroeste 29 Noroeste 0 -- -- 63
2017-09-18 22:00:00 20.8 17 Noroeste 24 Oeste 0 -- -- 66
2017-09-18 21:00:00 22.2 11 Noroeste 30 Noroeste 0 -- -- 57
2017-09-18 20:00:00 23.7 20 Noroeste 36 Noroeste 0 -- -- 52
2017-09-18 19:00:00 24.8 21 Noroeste 40 Noroeste 0 -- -- 47
2017-09-18 18:00:00 25.7 28 Noroeste 40 Noroeste 0 -- -- 43
2017-09-18 17:00:00 26.1 19 Noroeste 42 Noroeste 0 -- -- 42
2017-09-18 16:00:00 25.7 23 Noroeste 40 Noroeste 0 -- -- 46
2017-09-18 15:00:00 24.9 18 Noroeste 39 Noroeste 0 -- -- 46
2017-09-18 14:00:00 23.6 19 Norte 35 Norte 0 -- -- 49
2017-09-18 13:00:00 21.7 20 Norte 34 Norte 0 -- -- 53
2017-09-18 12:00:00 19.1 18 Noroeste 30 Noroeste 0 -- -- 60
2017-09-18 11:00:00 16.3 21 Noroeste 31 Noroeste 0 -- -- 68
2017-09-18 10:00:00 13.7 20 Noroeste 33 Norte 0 -- -- 78
2017-09-18 09:00:00 11.4 21 Noroeste 33 Noroeste 0 -- -- 84
2017-09-18 08:00:00 11.1 17 Noroeste 30 Noroeste 0 -- -- 81
2017-09-18 07:00:00 11.1 14 Noroeste 25 Noroeste 0 -- -- 78
2017-09-18 06:00:00 11.6 15 Noroeste 24 Noroeste 0 -- -- 74
2017-09-18 05:00:00 12.5 15 Noroeste 30 Noroeste 0 -- -- 70
2017-09-18 04:00:00 13.5 19 Noroeste 28 Noroeste 0 -- -- 66
2017-09-18 03:00:00 14.5 19 Noroeste 28 Noroeste 0 -- -- 62
2017-09-18 02:00:00 15.5 15 Noroeste 27 Noroeste 0 -- -- 58
2017-09-18 01:00:00 16.7 15 Noroeste 24 Noroeste 0 -- -- 53
2017-09-18 00:00:00 17.8 14 Noroeste 24 Noroeste 0 -- -- 50
2017-09-17 23:00:00 19 15 Noroeste 24 Noroeste 0 -- -- 44
2017-09-17 22:00:00 21 8 Oeste 15 Oeste 0 -- -- 31
2017-09-17 21:00:00 22.5 6 Sudoeste 21 Oeste 0 -- -- 28
2017-09-17 20:00:00 25 10 Oeste 24 Oeste 0 -- -- 21
2017-09-17 19:00:00 25.9 13 Oeste 27 Noroeste 0 -- -- 21
2017-09-17 18:00:00 25.7 13 Noroeste 27 Noroeste 0 -- -- 22
2017-09-17 17:00:00 25.7 14 Noroeste 30 Noroeste 0 -- -- 25
2017-09-17 16:00:00 25.7 14 Noroeste 27 Noroeste 0 -- -- 27
2017-09-17 15:00:00 25.5 13 Oeste 22 Sudoeste 0 -- -- 26
2017-09-17 14:00:00 24 9 Noroeste 17 Noroeste 0 -- -- 31
2017-09-17 13:00:00 21.9 10 Noroeste 19 Oeste 0 -- -- 37
2017-09-17 12:00:00 19 13 Noroeste 24 Noroeste 0 -- -- 46
2017-09-17 11:00:00 15.7 17 Noroeste 23 Noroeste 0 -- -- 57
2017-09-17 10:00:00 13.2 16 Noroeste 23 Noroeste 0 -- -- 65
2017-09-17 09:00:00 10.9 15 Noroeste 23 Noroeste 0 -- -- 72
2017-09-17 08:00:00 10.5 13 Noroeste 23 Noroeste 0 -- -- 71
2017-09-17 07:00:00 10.9 18 Noroeste 25 Oeste 0 -- -- 67
2017-09-17 06:00:00 11.8 17 Noroeste 26 Noroeste 0 -- -- 62
2017-09-17 05:00:00 12.7 18 Noroeste 26 Noroeste 0 -- -- 58
2017-09-17 04:00:00 13.7 17 Noroeste 24 Noroeste 0 -- -- 53
2017-09-17 03:00:00 14.3 13 Noroeste 22 Noroeste 0 -- -- 51
2017-09-17 02:00:00 15.6 17 Noroeste 27 Noroeste 0 -- -- 48
2017-09-17 01:00:00 16.4 15 Noroeste 27 Oeste 0 -- -- 51
2017-09-17 00:00:00 17.7 15 Oeste 26 Oeste 0 -- -- 48
2017-09-16 23:00:00 19.9 14 Oeste 23 Oeste 0 -- -- 34
2017-09-16 22:00:00 20.4 7 Noroeste 11 Noroeste 0 -- -- 31
2017-09-16 21:00:00 21.5 9 Noroeste 15 Noroeste 0 -- -- 29
2017-09-16 20:00:00 24 10 Noroeste 23 Noroeste 0 -- -- 25
2017-09-16 19:00:00 24.7 15 Noroeste 26 Noroeste 0 -- -- 23
2017-09-16 18:00:00 24.9 12 Norte 26 Noroeste 0 -- -- 23
2017-09-16 17:00:00 24.8 15 Noroeste 30 Noroeste 0 -- -- 25
2017-09-16 16:00:00 24.2 12 Norte 30 Noroeste 0 -- -- 25
2017-09-16 15:00:00 23.7 14 Noroeste 26 Oeste 0 -- -- 26
2017-09-16 14:00:00 22.8 14 Noroeste 29 Noroeste 0 -- -- 30
2017-09-16 13:00:00 21 18 Noroeste 27 Noroeste 0 -- -- 38
2017-09-16 12:00:00 18.1 17 Noroeste 28 Noroeste 0 -- -- 50
2017-09-16 11:00:00 14.9 22 Noroeste 30 Noroeste 0 -- -- 63
2017-09-16 10:00:00 12 19 Noroeste 29 Noroeste 0 -- -- 76
2017-09-16 09:00:00 10.1 15 Noroeste 27 Noroeste 0 -- -- 83
2017-09-16 08:00:00 9.9 18 Noroeste 30 Noroeste 0 -- -- 83
2017-09-16 07:00:00 10.4 20 Noroeste 29 Noroeste 0 -- -- 80
2017-09-16 06:00:00 10.9 17 Noroeste 27 Noroeste 0 -- -- 77
2017-09-16 05:00:00 11.6 17 Noroeste 30 Noroeste 0 -- -- 73
2017-09-16 04:00:00 12.5 19 Noroeste 30 Noroeste 0 -- -- 68
2017-09-16 03:00:00 13.4 21 Noroeste 32 Noroeste 0 -- -- 64
2017-09-16 02:00:00 14.5 19 Noroeste 31 Noroeste 0 -- -- 58
2017-09-16 01:00:00 15.7 20 Noroeste 30 Noroeste 0 -- -- 54
2017-09-16 00:00:00 17 19 Noroeste 38 Noroeste 0 -- -- 50
2017-09-15 23:00:00 18.5 23 Noroeste 40 Noroeste 0 -- -- 45
2017-09-15 22:00:00 20.2 13 Noroeste 23 Noroeste 0 -- -- 28
2017-09-15 21:00:00 21.8 15 Noroeste 31 Noroeste 0 -- -- 24
2017-09-15 20:00:00 23.9 18 Noroeste 36 Noroeste 0 -- -- 22
2017-09-15 19:00:00 24.8 17 Norte 33 Norte 0 -- -- 26
2017-09-15 18:00:00 25.2 18 Noroeste 34 Noroeste 0 -- -- 26
2017-09-15 17:00:00 25.1 18 Noroeste 46 Noroeste 0 -- -- 25
2017-09-15 16:00:00 24.2 21 Norte 38 Noroeste 0 -- -- 27
2017-09-15 15:00:00 22.8 21 Noroeste 40 Noroeste 0 -- -- 35
2017-09-15 14:00:00 20.8 24 Noroeste 39 Noroeste 0 -- -- 41
2017-09-15 13:00:00 19.4 24 Noroeste 42 Noroeste 0 -- -- 46
2017-09-15 12:00:00 17.2 23 Noroeste 33 Noroeste 0 -- -- 56
2017-09-15 11:00:00 14.9 21 Noroeste 36 Noroeste 0 -- -- 65
2017-09-15 10:00:00 13 21 Noroeste 36 Noroeste 0 -- -- 74
2017-09-15 09:00:00 11.7 21 Noroeste 36 Noroeste 0 -- -- 83
2017-09-15 08:00:00 11.7 18 Noroeste 34 Noroeste 0 -- -- 83
2017-09-15 07:00:00 12.3 22 Noroeste 39 Noroeste 0 -- -- 81
2017-09-15 06:00:00 13 23 Noroeste 37 Noroeste 0 -- -- 76
2017-09-15 05:00:00 14 23 Noroeste 38 Noroeste 0 -- -- 67
2017-09-15 04:00:00 15.3 20 Noroeste 32 Noroeste 0 -- -- 59
2017-09-15 03:00:00 17.3 14 Noroeste 32 Noroeste 0 -- -- 54
2017-09-15 02:00:00 19.6 19 Noroeste 32 Noroeste 0 -- -- 43
2017-09-15 01:00:00 20.4 20 Noroeste 28 Noroeste 0 -- -- 60
2017-09-15 00:00:00 22.6 17 Noroeste 30 Noroeste 0 -- -- 61
2017-09-14 23:00:00 24 16 Noroeste 25 Noroeste 0 -- -- 49
2017-09-14 22:00:00 24.6 9 Noroeste 17 Noroeste 0 -- -- 36
2017-09-14 21:00:00 27 12 Noroeste 26 Noroeste 0 -- -- 30
2017-09-14 20:00:00 28.6 14 Noroeste 30 Noroeste 0 -- -- 32
2017-09-14 19:00:00 29.9 16 Noroeste 30 Noroeste 0 -- -- 27
2017-09-14 18:00:00 30.9 15 Noroeste 30 Noroeste 0 -- -- 25
2017-09-14 17:00:00 30.7 17 Noroeste 27 Noroeste 0 -- -- 25
2017-09-14 16:00:00 29.8 16 Noroeste 30 Noroeste 0 -- -- 30
2017-09-14 15:00:00 28.5 15 Noroeste 30 Noroeste 0 -- -- 36
2017-09-14 14:00:00 26.9 19 Noroeste 30 Noroeste 0 -- -- 39
2017-09-14 13:00:00 24 18 Noroeste 27 Noroeste 0 -- -- 50
2017-09-14 12:00:00 21.8 19 Noroeste 30 Noroeste 0 -- -- 59
2017-09-14 11:00:00 18.9 17 Noroeste 30 Noroeste 0 -- -- 71
2017-09-14 10:00:00 16.8 23 Noroeste 30 Noroeste 0 -- -- 79
2017-09-14 09:00:00 15.4 17 Noroeste 29 Noroeste 0 -- -- 82
2017-09-14 08:00:00 15.7 18 Noroeste 26 Noroeste 0 -- -- 80
2017-09-14 07:00:00 16.5 18 Noroeste 26 Noroeste 0 -- -- 77
2017-09-14 06:00:00 17.3 16 Noroeste 24 Noroeste 0 -- -- 75
2017-09-14 05:00:00 17.8 15 Noroeste 22 Noroeste 0 -- -- 72
2017-09-14 04:00:00 18.9 11 Noroeste 21 Noroeste 0 -- -- 67
2017-09-14 03:00:00 20.2 12 Noroeste 17 Noroeste 0 -- -- 61
2017-09-14 02:00:00 20.8 9 Noroeste 16 Noroeste 0 -- -- 55
2017-09-14 01:00:00 22.4 11 Noroeste 16 Noroeste 0 -- -- 46
2017-09-14 00:00:00 24.6 11 Oeste 23 Oeste 0 -- -- 38
2017-09-13 23:00:00 24.9 12 Oeste 15 Oeste 0 -- -- 51
2017-09-13 22:00:00 25.9 9 Oeste 21 Sudoeste 0 -- -- 42
2017-09-13 21:00:00 26.8 17 Sudoeste 28 Sudoeste 0 -- -- 45
2017-09-13 20:00:00 29.1 23 Sudoeste 36 Sur 0 -- -- 36
2017-09-13 19:00:00 31.8 22 Sudoeste 32 Sur 0 -- -- 28
2017-09-13 18:00:00 33.3 19 Sudoeste 36 Oeste 0 -- -- 27
2017-09-13 17:00:00 34.6 13 Sudoeste 25 Sudoeste 0 -- -- 24
2017-09-13 16:00:00 34.1 8 Sur 25 Sur 0 -- -- 22
2017-09-13 15:00:00 33 13 Sur 20 Sudoeste 0 -- -- 26
2017-09-13 14:00:00 32 10 Sudoeste 20 Noroeste 0 -- -- 27
2017-09-13 13:00:00 30.3 6 Sudeste 18 Sur 0 -- -- 31
2017-09-13 12:00:00 28.3 8 Sur 15 Sur 0 -- -- 35
2017-09-13 11:00:00 23.4 2 Norte 9 Noroeste 0 -- -- 55
2017-09-13 10:00:00 18.9 7 Noroeste 14 Oeste 0 -- -- 74
2017-09-13 09:00:00 17.5 7 Oeste 12 Oeste 0 -- -- 78
2017-09-13 08:00:00 16.9 6 Oeste 15 Oeste 0 -- -- 80
2017-09-13 07:00:00 17.6 8 Oeste 14 Noroeste 0 -- -- 76
2017-09-13 06:00:00 18 6 Oeste 17 Noroeste 0 -- -- 73
2017-09-13 05:00:00 18.9 12 Noroeste 19 Noroeste 0 -- -- 67
2017-09-13 04:00:00 20.1 8 Noroeste 17 Noroeste 0 -- -- 60
2017-09-13 03:00:00 21.3 10 Noroeste 15 Noroeste 0 -- -- 51
2017-09-13 02:00:00 22.2 6 Noroeste 17 Noroeste 0 -- -- 44
2017-09-13 01:00:00 23.3 11 Noroeste 20 Noroeste 0 -- -- 38
2017-09-13 00:00:00 24.9 11 Noroeste 19 Norte 0 -- -- 33
2017-09-12 23:00:00 26.4 12 Noroeste 19 Noroeste 0 -- -- 30
2017-09-12 22:00:00 27.7 13 Norte 19 Norte 0 -- -- 28
2017-09-12 21:00:00 29 13 Noroeste 21 Norte 0 -- -- 26
2017-09-12 20:00:00 31.4 16 Norte 30 Noroeste 0 -- -- 24
2017-09-12 19:00:00 32.5 15 Norte 30 Nordeste 0 -- -- 23
2017-09-12 18:00:00 33.5 15 Norte 32 Norte 0 -- -- 20
2017-09-12 17:00:00 33 17 Norte 36 Norte 0 -- -- 21
2017-09-12 16:00:00 32.7 19 Norte 40 Noroeste 0 -- -- 23
2017-09-12 15:00:00 31.4 19 Noroeste 32 Noroeste 0 -- -- 26
2017-09-12 14:00:00 30.3 17 Norte 30 Norte 0 -- -- 29
2017-09-12 13:00:00 29.1 14 Norte 32 Noroeste 0 -- -- 31
2017-09-12 12:00:00 26.8 16 Norte 24 Noroeste 0 -- -- 36
2017-09-12 11:00:00 24 11 Noroeste 24 Noroeste 0 -- -- 44
2017-09-12 10:00:00 19.4 15 Noroeste 23 Noroeste 0 -- -- 58
2017-09-12 09:00:00 16.5 13 Noroeste 23 Noroeste 0 -- -- 68
2017-09-12 08:00:00 16.1 13 Noroeste 22 Noroeste 0 -- -- 69
2017-09-12 07:00:00 17 8 Noroeste 17 Noroeste 0 -- -- 65
2017-09-12 06:00:00 18.5 10 Noroeste 17 Noroeste 0 -- -- 61
2017-09-12 05:00:00 19.2 7 Noroeste 19 Noroeste 0 -- -- 61
2017-09-12 04:00:00 20.3 10 Noroeste 16 Noroeste 0 -- -- 58
2017-09-12 03:00:00 21.4 9 Noroeste 20 Norte 0 -- -- 55
2017-09-12 02:00:00 23 9 Norte 23 Norte 0 -- -- 51
2017-09-12 01:00:00 24.4 14 Noroeste 27 Norte 0 -- -- 46
2017-09-12 00:00:00 26 17 Norte 30 Noroeste 0 -- -- 42
2017-09-11 23:00:00 27.2 13 Norte 29 Norte 0 -- -- 37
2017-09-11 22:00:00 28.5 13 Norte 22 Norte 0 -- -- 31
2017-09-11 21:00:00 30 13 Norte 31 Norte 0 -- -- 29
2017-09-11 20:00:00 31.8 19 Norte 33 Norte 0 -- -- 25
2017-09-11 19:00:00 33 20 Norte 34 Noroeste 0 -- -- 24
2017-09-11 18:00:00 33.3 21 Noroeste 34 Noroeste 0 -- -- 25
2017-09-11 17:00:00 33.3 15 Noroeste 31 Noroeste 0 -- -- 25
2017-09-11 16:00:00 33.4 8 Noroeste 19 Norte 0 -- -- 24
2017-09-11 15:00:00 32.7 6 Norte 18 Oeste 0 -- -- 23
2017-09-11 14:00:00 30.5 6 Noroeste 18 Noroeste 0 -- -- 24
2017-09-11 13:00:00 28.9 5 Noroeste 13 Noroeste 0 -- -- 25
2017-09-11 12:00:00 26.2 5 Noroeste 12 Noroeste 0 -- -- 34
2017-09-11 11:00:00 22.4 7 Noroeste 12 Oeste 0 -- -- 45
2017-09-11 10:00:00 18.4 7 Noroeste 17 Oeste 0 -- -- 57
2017-09-11 09:00:00 15.5 9 Oeste 15 Oeste 0 -- -- 69
2017-09-11 08:00:00 15.3 6 Oeste 21 Noroeste 0 -- -- 68
2017-09-11 07:00:00 15.7 12 Noroeste 21 Noroeste 0 -- -- 66
2017-09-11 06:00:00 16.4 6 Oeste 13 Noroeste 0 -- -- 59
2017-09-11 05:00:00 17 8 Noroeste 17 Noroeste 0 -- -- 54
2017-09-11 04:00:00 17.4 6 Oeste 17 Noroeste 0 -- -- 48
2017-09-11 03:00:00 18.9 12 Noroeste 16 Norte 0 -- -- 43
2017-09-11 02:00:00 20.3 6 Norte 22 Norte 0 -- -- 38
2017-09-11 01:00:00 21.4 13 Norte 26 Noroeste 0 -- -- 33
2017-09-11 00:00:00 22.3 9 Norte 15 Noroeste 0 -- -- 28
2017-09-10 23:00:00 23 9 Norte 13 Norte 0 -- -- 27
2017-09-10 22:00:00 23.5 9 Noroeste 17 Noroeste 0 -- -- 27
2017-09-10 21:00:00 24.7 12 Norte 27 Noroeste 0 -- -- 26
2017-09-10 20:00:00 26.3 17 Norte 32 Norte 0 -- -- 23
2017-09-10 19:00:00 26.8 21 Norte 32 Noroeste 0 -- -- 24
2017-09-10 18:00:00 27 17 Norte 32 Noroeste 0 -- -- 24
2017-09-10 17:00:00 26.7 14 Norte 30 Norte 0 -- -- 26
2017-09-10 16:00:00 26 12 Norte 26 Norte 0 -- -- 29
2017-09-10 15:00:00 25.2 13 Noroeste 27 Noroeste 0 -- -- 30
2017-09-10 14:00:00 23.6 13 Norte 23 Noroeste 0 -- -- 33
2017-09-10 13:00:00 21.6 12 Norte 21 Nordeste 0 -- -- 39
2017-09-10 12:00:00 19.5 10 Norte 26 Norte 0 -- -- 47
2017-09-10 11:00:00 16.9 17 Norte 32 Norte 0 -- -- 61
2017-09-10 10:00:00 14.8 15 Noroeste 27 Noroeste 0 -- -- 72
2017-09-10 09:00:00 13 17 Norte 33 Noroeste 0 -- -- 79
2017-09-10 08:00:00 12.5 16 Noroeste 26 Noroeste 0 -- -- 80
2017-09-10 07:00:00 12.9 13 Noroeste 27 Norte 0 -- -- 77
2017-09-10 06:00:00 13.2 18 Noroeste 35 Noroeste 0 -- -- 75
2017-09-10 05:00:00 13.9 19 Noroeste 35 Noroeste 0 -- -- 71
2017-09-10 04:00:00 14.3 18 Noroeste 30 Noroeste 0 -- -- 69
2017-09-10 03:00:00 14.9 18 Noroeste 31 Noroeste 0 -- -- 68
2017-09-10 02:00:00 15.7 22 Noroeste 38 Noroeste 0 -- -- 65
2017-09-10 01:00:00 16.9 23 Noroeste 34 Noroeste 0 -- -- 61
2017-09-10 00:00:00 17.9 19 Noroeste 44 Noroeste 0 -- -- 58
2017-09-09 23:00:00 19.1 26 Noroeste 42 Noroeste 0 -- -- 53
2017-09-09 22:00:00 20.4 20 Noroeste 45 Noroeste 0 -- -- 46
2017-09-09 21:00:00 22 27 Noroeste 49 Noroeste 0 -- -- 43
2017-09-09 20:00:00 23.9 30 Noroeste 45 Noroeste 0 -- -- 42
2017-09-09 19:00:00 25.2 26 Noroeste 48 Noroeste 0 -- -- 42
2017-09-09 18:00:00 26 28 Noroeste 47 Noroeste 0 -- -- 40
2017-09-09 17:00:00 26.4 26 Noroeste 54 Oeste 0 -- -- 41
2017-09-09 16:00:00 25.4 22 Noroeste 42 Noroeste 0 -- -- 43
2017-09-09 15:00:00 24.1 23 Noroeste 39 Noroeste 0 -- -- 46
2017-09-09 14:00:00 22.6 21 Noroeste 39 Noroeste 0 -- -- 56
2017-09-09 13:00:00 20.9 26 Noroeste 46 Norte 0 -- -- 64
2017-09-09 12:00:00 19.1 31 Noroeste 48 Noroeste 0 -- -- 72
2017-09-09 11:00:00 18.1 27 Noroeste 47 Noroeste 0 -- -- 76
2017-09-09 10:00:00 16.2 29 Noroeste 44 Noroeste 0 -- -- 84
2017-09-09 09:00:00 14.9 19 Noroeste 38 Noroeste 0 -- -- 89
2017-09-09 08:00:00 13.9 24 Noroeste 37 Noroeste 0 -- -- 92
2017-09-09 07:00:00 13.6 22 Noroeste 37 Noroeste 0 -- -- 90
2017-09-09 06:00:00 13.7 18 Noroeste 40 Noroeste 0 -- -- 86
2017-09-09 05:00:00 14.3 23 Noroeste 37 Noroeste 0 -- -- 80
2017-09-09 04:00:00 15.1 27 Noroeste 38 Noroeste 0 -- -- 74
2017-09-09 03:00:00 16.3 19 Noroeste 35 Noroeste 0 -- -- 66
2017-09-09 02:00:00 17.8 24 Noroeste 38 Noroeste 0 -- -- 57
2017-09-09 01:00:00 19.9 23 Noroeste 36 Noroeste 0 -- -- 46
2017-09-09 00:00:00 21.5 14 Noroeste 26 Noroeste 0 -- -- 32
2017-09-08 23:00:00 24.9 17 Noroeste 33 Noroeste 0 -- -- 26
2017-09-08 22:00:00 27.3 18 Noroeste 31 Noroeste 0 -- -- 24
2017-09-08 21:00:00 29.7 15 Noroeste 32 Noroeste 0 -- -- 15
2017-09-08 20:00:00 32.8 15 Noroeste 30 Noroeste 0 -- -- 13
2017-09-08 19:00:00 34.3 17 Oeste 32 Oeste 0 -- -- 12
2017-09-08 18:00:00 35 18 Noroeste 32 Noroeste 0 -- -- 12
2017-09-08 17:00:00 35.1 16 Oeste 32 Sudoeste 0 -- -- 11
2017-09-08 16:00:00 34.9 14 Oeste 29 Oeste 0 -- -- 13
2017-09-08 15:00:00 34.3 13 Oeste 29 Noroeste 0 -- -- 12
2017-09-08 14:00:00 34.1 4 Sudoeste 15 Sur 0 -- -- 20
2017-09-08 13:00:00 31.9 6 Oeste 12 Sudoeste 0 -- -- 23
2017-09-08 12:00:00 28.3 2 Oeste 6 Oeste 0 -- -- 31
2017-09-08 11:00:00 23.7 3 Noroeste 9 Noroeste 0 -- -- 37
2017-09-08 10:00:00 20.4 7 Noroeste 12 Noroeste 0 -- -- 46
2017-09-08 09:00:00 19.1 5 Oeste 14 Noroeste 0 -- -- 47
2017-09-08 08:00:00 19 9 Oeste 13 Oeste 0 -- -- 44
2017-09-08 07:00:00 19.4 6 Oeste 13 Oeste 0 -- -- 45
2017-09-08 06:00:00 19.9 9 Oeste 17 Oeste 0 -- -- 52
2017-09-08 05:00:00 20.7 9 Noroeste 15 Noroeste 0 -- -- 72
2017-09-08 04:00:00 22.7 7 Oeste 12 Noroeste 0 -- -- 64
2017-09-08 03:00:00 23 0 Calma 6 Nordeste 0 -- -- 64
2017-09-08 02:00:00 23.4 2 Nordeste 5 Nordeste 0 -- -- 66
2017-09-08 01:00:00 23.4 4 Este 9 Este 0 -- -- 66
2017-09-08 00:00:00 24.3 3 Nordeste 17 Nordeste 0 -- -- 61
2017-09-07 23:00:00 27.1 6 Oeste 13 Sudoeste 0 -- -- 53
2017-09-07 22:00:00 26.2 11 Sudoeste 22 Sudoeste 0 -- -- 56
2017-09-07 21:00:00 27.7 15 Sudoeste 30 Sur 0 -- -- 50
2017-09-07 20:00:00 30.1 24 Sur 29 Sur 0 -- -- 41
2017-09-07 19:00:00 32.6 24 Sudoeste 31 Sudoeste 0 -- -- 36
2017-09-07 18:00:00 34.8 20 Sudoeste 37 Sur 0 -- -- 31
2017-09-07 17:00:00 34.8 20 Sur 34 Sur 0 -- -- 31
2017-09-07 16:00:00 35.4 14 Sur 27 Sudoeste 0 -- -- 28
2017-09-07 15:00:00 34.4 9 Sudoeste 20 Sur 0 -- -- 29
2017-09-07 14:00:00 33 13 Sur 21 Sur 0 -- -- 33
2017-09-07 13:00:00 31.7 9 Sudoeste 18 Sudoeste 0 -- -- 34
2017-09-07 12:00:00 29.4 9 Sudoeste 17 Sur 0 -- -- 43
2017-09-07 11:00:00 27.1 3 Sur 8 Sudoeste 0 -- -- 49
2017-09-07 10:00:00 22.7 3 Nordeste 6 Noroeste 0 -- -- 60
2017-09-07 09:00:00 20.2 4 Noroeste 6 Oeste 0 -- -- 68
2017-09-07 08:00:00 20 3 Sudoeste 9 Oeste 0 -- -- 67
2017-09-07 07:00:00 20.4 5 Oeste 20 Noroeste 0 -- -- 67
2017-09-07 06:00:00 20.6 15 Noroeste 24 Noroeste 0 -- -- 68
2017-09-07 05:00:00 21.4 14 Noroeste 20 Noroeste 0 -- -- 67
2017-09-07 04:00:00 22.3 14 Noroeste 21 Noroeste 0 -- -- 65
2017-09-07 03:00:00 23.3 13 Noroeste 21 Noroeste 0 -- -- 61
2017-09-07 02:00:00 24.5 13 Noroeste 21 Noroeste 0 -- -- 56
2017-09-07 01:00:00 25.5 14 Noroeste 19 Noroeste 0 -- -- 51
2017-09-07 00:00:00 26.7 11 Noroeste 20 Noroeste 0 -- -- 44
2017-09-06 23:00:00 28.7 11 Noroeste 15 Oeste 0 -- -- 40
2017-09-06 22:00:00 29.3 7 Oeste 15 Oeste 0 -- -- 41
2017-09-06 21:00:00 30.4 7 Oeste 22 Sudoeste 0 -- -- 39
2017-09-06 20:00:00 32.9 17 Sudoeste 33 Sudoeste 0 -- -- 35
2017-09-06 19:00:00 35 17 Sudoeste 28 Sudoeste 0 -- -- 31
2017-09-06 18:00:00 35.4 12 Noroeste 26 Oeste 0 -- -- 28
2017-09-06 17:00:00 35.5 6 Norte 23 Noroeste 0 -- -- 30
2017-09-06 16:00:00 35.3 10 Oeste 17 Noroeste 0 -- -- 30
2017-09-06 15:00:00 35.1 10 Sudoeste 18 Sur 0 -- -- 30
2017-09-06 14:00:00 33.5 9 Sudoeste 17 Sudoeste 0 -- -- 35
2017-09-06 13:00:00 32.2 5 Sur 11 Sur 0 -- -- 38
2017-09-06 12:00:00 28.2 4 Norte 9 Noroeste 0 -- -- 49
2017-09-06 11:00:00 24.2 7 Noroeste 13 Noroeste 0 -- -- 60
2017-09-06 10:00:00 20.7 9 Noroeste 16 Noroeste 0 -- -- 72
2017-09-06 09:00:00 18.8 10 Noroeste 16 Noroeste 0 -- -- 81
2017-09-06 08:00:00 18.7 6 Oeste 21 Noroeste 0 -- -- 81
2017-09-06 07:00:00 19.6 15 Noroeste 22 Noroeste 0 -- -- 78
2017-09-06 06:00:00 20.3 12 Oeste 24 Noroeste 0 -- -- 76
2017-09-06 05:00:00 20.7 13 Noroeste 22 Noroeste 0 -- -- 75
2017-09-06 04:00:00 21.6 14 Noroeste 25 Noroeste 0 -- -- 72
2017-09-06 03:00:00 22.6 15 Noroeste 25 Noroeste 0 -- -- 66
2017-09-06 02:00:00 22.8 14 Noroeste 19 Noroeste 0 -- -- 64
2017-09-06 01:00:00 23.9 11 Noroeste 18 Noroeste 0 -- -- 62
2017-09-06 00:00:00 25.6 9 Noroeste 13 Noroeste 0 -- -- 55
2017-09-05 23:00:00 25.3 10 Oeste 13 Sudoeste 0 -- -- 56
2017-09-05 22:00:00 25.7 12 Sudoeste 23 Sur 0 -- -- 56
2017-09-05 21:00:00 27.9 19 Sur 23 Sur 0 -- -- 51
2017-09-05 20:00:00 30.2 18 Sur 24 Sur 0 -- -- 45
2017-09-05 19:00:00 31.4 16 Sur 24 Sudoeste 0 -- -- 42
2017-09-05 18:00:00 31.8 17 Sur 27 Sudoeste 0 -- -- 41
2017-09-05 17:00:00 31.6 13 Sur 25 Sur 0 -- -- 42
2017-09-05 16:00:00 31.3 15 Sur 28 Sur 0 -- -- 44
2017-09-05 15:00:00 31.5 14 Sur 23 Sur 0 -- -- 42
2017-09-05 14:00:00 31 10 Sudoeste 20 Sudeste 0 -- -- 43
2017-09-05 13:00:00 29.4 9 Sudeste 23 Sudeste 0 -- -- 45
2017-09-05 12:00:00 27.2 8 Sudeste 16 Sudeste 0 -- -- 52
2017-09-05 11:00:00 21.9 4 Noroeste 14 Noroeste 0 -- -- 69
2017-09-05 10:00:00 18.2 10 Noroeste 22 Noroeste 0 -- -- 85
2017-09-05 09:00:00 16 12 Noroeste 31 Noroeste 0 -- -- 94
2017-09-05 08:00:00 15.7 20 Noroeste 28 Noroeste 0 -- -- 93
2017-09-05 07:00:00 16 14 Noroeste 24 Noroeste 0 -- -- 91
2017-09-05 06:00:00 16.5 13 Noroeste 26 Noroeste 0 -- -- 89
2017-09-05 05:00:00 16.9 19 Noroeste 31 Noroeste 0 -- -- 87
2017-09-05 04:00:00 17.5 19 Noroeste 32 Noroeste 0 -- -- 84
2017-09-05 03:00:00 18.3 19 Noroeste 33 Noroeste 0 -- -- 80
2017-09-05 02:00:00 19.2 20 Noroeste 33 Noroeste 0 -- -- 77
2017-09-05 01:00:00 19.8 19 Noroeste 32 Noroeste 0 -- -- 74
2017-09-05 00:00:00 21.3 21 Noroeste 33 Oeste 0 -- -- 68
2017-09-04 23:00:00 22.8 22 Noroeste 36 Noroeste 0 -- -- 63
2017-09-04 22:00:00 25.4 8 Noroeste 17 Noroeste 0 -- -- 55
2017-09-04 21:00:00 27 10 Noroeste 27 Noroeste 0 -- -- 50
2017-09-04 20:00:00 28.2 18 Noroeste 31 Noroeste 0 -- -- 47
2017-09-04 19:00:00 28.9 17 Noroeste 38 Noroeste 0 -- -- 48
2017-09-04 18:00:00 29.3 20 Noroeste 36 Noroeste 0 -- -- 48
2017-09-04 17:00:00 29.7 17 Noroeste 34 Noroeste 0 -- -- 44
2017-09-04 16:00:00 28.7 18 Norte 40 Noroeste 0 -- -- 47
2017-09-04 15:00:00 27.9 20 Norte 40 Noroeste 0 -- -- 49
2017-09-04 14:00:00 27 17 Norte 40 Noroeste 0 -- -- 54
2017-09-04 13:00:00 25.4 24 Norte 39 Norte 0 -- -- 57
2017-09-04 12:00:00 23.1 21 Norte 37 Noroeste 0 -- -- 63
2017-09-04 11:00:00 20.8 19 Noroeste 34 Noroeste 0 -- -- 70
2017-09-04 10:00:00 18.1 18 Noroeste 32 Noroeste 0 -- -- 75
2017-09-04 09:00:00 16.1 20 Noroeste 30 Noroeste 0 -- -- 79
2017-09-04 08:00:00 15.5 18 Noroeste 30 Noroeste 0 -- -- 76
2017-09-04 07:00:00 16.1 21 Noroeste 31 Noroeste 0 -- -- 73
2017-09-04 06:00:00 16.8 21 Noroeste 33 Noroeste 0 -- -- 72
2017-09-04 05:00:00 17.4 21 Noroeste 31 Noroeste 0 -- -- 71
2017-09-04 04:00:00 18.1 19 Noroeste 33 Noroeste 0 -- -- 63
2017-09-04 03:00:00 18.9 19 Noroeste 32 Noroeste 0 -- -- 50
2017-09-04 02:00:00 20.4 18 Noroeste 27 Noroeste 0 -- -- 39
2017-09-04 01:00:00 21.7 18 Noroeste 28 Noroeste 0 -- -- 43
2017-09-04 00:00:00 23.5 15 Noroeste 28 Noroeste 0 -- -- 35
2017-09-03 23:00:00 25.6 15 Noroeste 27 Noroeste 0 -- -- 29
2017-09-03 22:00:00 26.4 14 Noroeste 22 Oeste 0 -- -- 28
2017-09-03 21:00:00 29.4 12 Noroeste 24 Noroeste 0 -- -- 27
2017-09-03 20:00:00 30.1 14 Sudoeste 27 Sudoeste 0 -- -- 45
2017-09-03 19:00:00 30.9 21 Sudoeste 34 Sur 0 -- -- 43
2017-09-03 18:00:00 32.6 15 Sudoeste 28 Sudoeste 0 -- -- 36
2017-09-03 17:00:00 33.7 14 Noroeste 27 Oeste 0 -- -- 21
2017-09-03 16:00:00 33.3 12 Noroeste 33 Oeste 0 -- -- 24
2017-09-03 15:00:00 32.5 14 Oeste 23 Oeste 0 -- -- 31
2017-09-03 14:00:00 31.2 9 Oeste 24 Oeste 0 -- -- 36
2017-09-03 13:00:00 29.8 8 Sudoeste 18 Sudoeste 0 -- -- 40
2017-09-03 12:00:00 27.7 8 Oeste 14 Sudoeste 0 -- -- 46
2017-09-03 11:00:00 25.1 6 Noroeste 12 Noroeste 0 -- -- 46
2017-09-03 10:00:00 21.6 6 Noroeste 9 Noroeste 0 -- -- 53
2017-09-03 09:00:00 19.6 4 Oeste 10 Oeste 0 -- -- 54
2017-09-03 08:00:00 19.2 5 Oeste 9 Oeste 0 -- -- 55
2017-09-03 07:00:00 20.1 3 Oeste 9 Sur 0 -- -- 54
2017-09-03 06:00:00 21.3 4 Sur 9 Sur 0 -- -- 58
2017-09-03 05:00:00 21.4 0 Calma 4 Norte 0 -- -- 69
2017-09-03 04:00:00 22.2 0 Calma 6 Sudoeste 0 -- -- 65
2017-09-03 03:00:00 22.9 5 Oeste 10 Sudoeste 0 -- -- 65
2017-09-03 02:00:00 23.6 9 Sudoeste 21 Sudoeste 0 -- -- 68
2017-09-03 01:00:00 24.1 15 Sudoeste 23 Sudoeste 0 -- -- 68
2017-09-03 00:00:00 24.5 18 Sudoeste 27 Sudoeste 0 -- -- 67
2017-09-02 23:00:00 25 17 Sudoeste 31 Sudoeste 0 -- -- 65
2017-09-02 22:00:00 25.7 25 Sur 34 Sur 0 -- -- 62
2017-09-02 21:00:00 27.4 26 Sur 34 Sudoeste 0 -- -- 56
2017-09-02 20:00:00 30.6 23 Sudoeste 33 Sur 0 -- -- 49
2017-09-02 19:00:00 34 5 Norte 17 Este 0 -- -- 29
2017-09-02 18:00:00 34.8 8 Sur 16 Norte 0 -- -- 27
2017-09-02 17:00:00 33.5 7 Norte 20 Este 0 -- -- 31
2017-09-02 16:00:00 33.4 7 Norte 16 Nordeste 0 -- -- 33
2017-09-02 15:00:00 31.9 6 Este 18 Sur 0 -- -- 41
2017-09-02 14:00:00 31 5 Este 14 Sudeste 0 -- -- 44
2017-09-02 13:00:00 29.7 6 Sudeste 20 Sur 0 -- -- 48
2017-09-02 12:00:00 28.5 4 Sudeste 11 Este 0 -- -- 51
2017-09-02 11:00:00 25.9 4 Nordeste 8 Nordeste 0 -- -- 63
2017-09-02 10:00:00 23.4 3 Nordeste 9 Sur 0 -- -- 71
2017-09-02 09:00:00 20.8 3 Este 9 Este 0 -- -- 79
2017-09-02 08:00:00 19.7 7 Nordeste 10 Este 0 -- -- 83
2017-09-02 07:00:00 19.7 6 Nordeste 8 Nordeste 0 -- -- 79
2017-09-02 06:00:00 20.5 8 Este 10 Este 0 -- -- 81
2017-09-02 05:00:00 20.9 4 Este 13 Este 0 -- -- 80
2017-09-02 04:00:00 21.3 9 Este 15 Sudeste 0 -- -- 78
2017-09-02 03:00:00 21.8 7 Nordeste 18 Este 0 -- -- 77
2017-09-02 02:00:00 22.6 10 Este 17 Este 0 -- -- 69
2017-09-02 01:00:00 23.8 6 Nordeste 12 Nordeste 0 -- -- 58
2017-09-02 00:00:00 25.2 5 Sudoeste 11 Sur 0 -- -- 60
2017-09-01 23:00:00 26 8 Sudoeste 15 Sudoeste 0 -- -- 56
2017-09-01 22:00:00 27.4 9 Sudoeste 17 Sudoeste 0 -- -- 51
2017-09-01 21:00:00 30.9 5 Oeste 25 Noroeste 0 -- -- 28
2017-09-01 20:00:00 32.9 12 Norte 29 Norte 0 -- -- 26
2017-09-01 19:00:00 34.5 7 Oeste 25 Norte 0 -- -- 26
2017-09-01 18:00:00 34.2 8 Norte 20 Oeste 0 -- -- 27
2017-09-01 17:00:00 34.3 13 Sudoeste 26 Oeste 0 -- -- 29
2017-09-01 16:00:00 32.9 12 Noroeste 24 Norte 0 -- -- 30
2017-09-01 15:00:00 32.9 7 Este 22 Oeste 0 -- -- 31
2017-09-01 14:00:00 32 6 Sur 23 Este 0 -- -- 33
2017-09-01 13:00:00 30.7 7 Sur 15 Sudoeste 0 -- -- 37
2017-09-01 12:00:00 28.7 4 Sur 8 Sur 0 -- -- 41
2017-09-01 11:00:00 25.2 3 Noroeste 6 Norte 0 -- -- 54
2017-09-01 10:00:00 21.2 3 Noroeste 8 Oeste 0 -- -- 67
2017-09-01 09:00:00 18.5 5 Noroeste 11 Oeste 0 -- -- 76
2017-09-01 08:00:00 17.6 6 Oeste 15 Noroeste 0 -- -- 79
2017-09-01 07:00:00 18.5 7 Noroeste 13 Noroeste 0 -- -- 75
2017-09-01 06:00:00 19.3 5 Oeste 19 Noroeste 0 -- -- 72
2017-09-01 05:00:00 20.1 12 Noroeste 18 Noroeste 0 -- -- 69
2017-09-01 04:00:00 20.8 8 Noroeste 17 Noroeste 0 -- -- 67
2017-09-01 03:00:00 21.8 12 Noroeste 23 Noroeste 0 -- -- 64
2017-09-01 02:00:00 22.8 17 Noroeste 28 Noroeste 0 -- -- 58
2017-09-01 01:00:00 23.1 17 Noroeste 24 Noroeste 0 -- -- 56
2017-09-01 00:00:00 25 11 Noroeste 17 Noroeste 0 -- -- 45
2017-08-31 23:00:00 26.2 10 Noroeste 15 Noroeste 0 -- -- 42
2017-08-31 22:00:00 27.4 10 Noroeste 18 Noroeste 0 -- -- 40
2017-08-31 21:00:00 28.9 10 Noroeste 25 Noroeste 0 -- -- 38
2017-08-31 20:00:00 30.7 16 Noroeste 25 Noroeste 0 -- -- 35
2017-08-31 19:00:00 31.1 15 Norte 28 Noroeste 0 -- -- 34
2017-08-31 18:00:00 31.7 7 Norte 21 Nordeste 0 -- -- 33
2017-08-31 17:00:00 31.7 10 Norte 21 Noroeste 0 -- -- 33
2017-08-31 16:00:00 31.4 6 Norte 21 Noroeste 0 -- -- 33
2017-08-31 15:00:00 29.8 5 Noroeste 19 Norte 0 -- -- 37
2017-08-31 14:00:00 28.9 7 Noroeste 21 Norte 0 -- -- 41
2017-08-31 13:00:00 27.4 6 Sudoeste 12 Sudoeste 0 -- -- 48
2017-08-31 12:00:00 24.7 6 Noroeste 12 Noroeste 0 -- -- 59
2017-08-31 11:00:00 21.6 8 Noroeste 16 Oeste 0 -- -- 72
2017-08-31 10:00:00 18.8 11 Oeste 18 Noroeste 0 -- -- 85
2017-08-31 09:00:00 17 12 Noroeste 18 Noroeste 0 -- -- 91
2017-08-31 08:00:00 16.4 10 Noroeste 18 Noroeste 0 -- -- 93
2017-08-31 07:00:00 16.9 12 Noroeste 17 Noroeste 0 -- -- 91
2017-08-31 06:00:00 17.5 13 Noroeste 18 Noroeste 0 -- -- 88
2017-08-31 05:00:00 18.3 9 Noroeste 20 Noroeste 0 -- -- 86
2017-08-31 04:00:00 18.9 11 Noroeste 18 Noroeste 0 -- -- 83
2017-08-31 03:00:00 19.8 13 Noroeste 20 Noroeste 0 -- -- 79
2017-08-31 02:00:00 20.7 12 Noroeste 20 Noroeste 0 -- -- 75
2017-08-31 01:00:00 21.1 10 Noroeste 23 Noroeste 0 -- -- 74
2017-08-31 00:00:00 21.7 10 Noroeste 17 Oeste 0 -- -- 72
2017-08-30 23:00:00 21.6 10 Sudoeste 15 Sudoeste 0 -- -- 73
2017-08-30 22:00:00 22.2 10 Sudoeste 24 Sudoeste 0 -- -- 69
2017-08-30 21:00:00 23.5 15 Sudoeste 31 Sudoeste 0 -- -- 64
2017-08-30 20:00:00 28.2 7 Noroeste 22 Sur 0 -- -- 46
2017-08-30 19:00:00 28.3 12 Noroeste 23 Norte 0 -- -- 36
2017-08-30 18:00:00 28 8 Noroeste 24 Noroeste 0 -- -- 37
2017-08-30 17:00:00 27.6 9 Norte 17 Norte 0 -- -- 38
2017-08-30 16:00:00 26.4 7 Norte 19 Norte 0 -- -- 44
2017-08-30 15:00:00 25.7 8 Noroeste 19 Norte 0 -- -- 47
2017-08-30 14:00:00 25.2 5 Norte 14 Sudeste 0 -- -- 53
2017-08-30 13:00:00 24 5 Noroeste 12 Oeste 0 -- -- 58
2017-08-30 12:00:00 22.6 5 Sur 11 Este 0 -- -- 65
2017-08-30 11:00:00 20.6 5 Este 10 Sudeste 0 -- -- 81
2017-08-30 10:00:00 18.8 5 Este 9 Este 0 -- -- 88
2017-08-30 09:00:00 16.3 5 Nordeste 10 Este 0 -- -- 93
2017-08-30 08:00:00 15.9 5 Este 11 Nordeste 0 -- -- 96
2017-08-30 07:00:00 15.4 8 Nordeste 12 Nordeste 0 -- -- 96
2017-08-30 06:00:00 16.6 6 Este 12 Sudeste 0 -- -- 94
2017-08-30 05:00:00 16.6 5 Este 8 Este 0 -- -- 94
2017-08-30 04:00:00 16.6 4 Este 9 Este 0 -- -- 94
2017-08-30 03:00:00 16.5 6 Nordeste 9 Nordeste 0 -- -- 94
2017-08-30 02:00:00 16.9 5 Sudeste 11 Este 0 -- -- 93
2017-08-30 01:00:00 17.2 5 Nordeste 7 Nordeste 0 -- -- 93
2017-08-30 00:00:00 17.6 6 Sudeste 10 Este 0 -- -- 91
2017-08-29 23:00:00 18 5 Nordeste 8 Nordeste 0 -- -- 90
2017-08-29 22:00:00 18 4 Norte 12 Sudoeste 0 -- -- 90
2017-08-29 21:00:00 18.8 4 Este 18 Sudeste 0 -- -- 86
2017-08-29 20:00:00 18.8 3 Sudeste 12 Sur 2 -- -- 86
2017-08-29 19:00:00 18.4 6 Oeste 42 Sudeste 3.6 -- -- 87
2017-08-29 18:00:00 18.4 18 Sudeste 39 Este 7 -- -- 85
2017-08-29 17:00:00 25.1 17 Este 32 Norte 0 -- -- 53
2017-08-29 16:00:00 26.4 10 Sudoeste 26 Sudoeste 0 -- -- 44
2017-08-29 15:00:00 25 10 Noroeste 19 Noroeste 0 -- -- 52
2017-08-29 14:00:00 22.8 9 Noroeste 21 Noroeste 0 -- -- 58
2017-08-29 13:00:00 21.8 7 Noroeste 18 Noroeste 0 -- -- 67
2017-08-29 12:00:00 20.2 10 Noroeste 17 Noroeste 0 -- -- 78
2017-08-29 11:00:00 19.1 8 Noroeste 15 Noroeste 0 -- -- 84
2017-08-29 10:00:00 17.8 11 Noroeste 18 Noroeste 0 -- -- 90
2017-08-29 09:00:00 16.6 4 Noroeste 9 Noroeste 0 -- -- 93
2017-08-29 08:00:00 15.9 4 Oeste 7 Noroeste 0 -- -- 94
2017-08-29 07:00:00 16.2 4 Oeste 10 Noroeste 0 -- -- 95
2017-08-29 06:00:00 16.5 7 Noroeste 13 Norte 0 -- -- 96
2017-08-29 05:00:00 16.5 7 Noroeste 12 Noroeste 0 -- -- 96
2017-08-29 04:00:00 16.8 6 Noroeste 13 Oeste 0 -- -- 93
2017-08-29 03:00:00 17.6 7 Oeste 10 Oeste 0 -- -- 86
2017-08-29 02:00:00 17.5 5 Sudoeste 6 Sudoeste 0 -- -- 88
2017-08-29 01:00:00 17.8 0 Calma 3 Norte 0 -- -- 86
2017-08-29 00:00:00 17.9 2 Nordeste 14 Oeste 0.2 -- -- 85
2017-08-28 23:00:00 17.9 9 Noroeste 16 Noroeste 0.2 -- -- 88
2017-08-28 22:00:00 18.1 14 Noroeste 25 Oeste 0.8 -- -- 85
2017-08-28 21:00:00 18 9 Sudoeste 31 Sudoeste 4.4 -- -- 84
2017-08-28 20:00:00 21.4 24 Sudoeste 35 Sudoeste 0 -- -- 66
2017-08-28 19:00:00 22.8 19 Sur 32 Sur 0 -- -- 61
2017-08-28 18:00:00 24.5 27 Sur 40 Sudoeste 0 -- -- 52
2017-08-28 17:00:00 24.4 23 Sur 40 Sudoeste 0 -- -- 54
2017-08-28 16:00:00 25.8 23 Sur 37 Sudoeste 0 -- -- 52
2017-08-28 15:00:00 25.2 18 Sur 30 Sur 0 -- -- 53
2017-08-28 14:00:00 23.2 19 Sudoeste 30 Sur 0 -- -- 58
2017-08-28 13:00:00 22.9 10 Sudoeste 19 Sudoeste 0 -- -- 61
2017-08-28 12:00:00 22.5 12 Sudoeste 17 Sur 0 -- -- 63
2017-08-28 11:00:00 22.2 9 Sur 14 Sur 0 -- -- 63
2017-08-28 10:00:00 19.2 2 Sudeste 4 Norte 0 -- -- 80
2017-08-28 09:00:00 17.1 0 Calma 9 Noroeste 0 -- -- 92
2017-08-28 08:00:00 16.7 3 Norte 9 Norte 0 -- -- 92
2017-08-28 07:00:00 16.7 9 Noroeste 14 Noroeste 0 -- -- 92
2017-08-28 06:00:00 16.8 6 Noroeste 14 Noroeste 0 -- -- 90
2017-08-28 05:00:00 17 8 Noroeste 13 Noroeste 0 -- -- 89
2017-08-28 04:00:00 16.9 6 Noroeste 13 Noroeste 0 -- -- 85
2017-08-28 03:00:00 17.7 9 Noroeste 14 Noroeste 0 -- -- 78
2017-08-28 02:00:00 18.6 10 Noroeste 22 Noroeste 0 -- -- 71
2017-08-28 01:00:00 19.6 13 Noroeste 21 Noroeste 0 -- -- 65
2017-08-28 00:00:00 20.6 13 Noroeste 24 Noroeste 0 -- -- 60
2017-08-27 23:00:00 21.6 13 Noroeste 29 Noroeste 0 -- -- 58
2017-08-27 22:00:00 23.4 17 Noroeste 26 Oeste 0 -- -- 53
2017-08-27 21:00:00 25.5 22 Sudoeste 32 Sur 0 -- -- 42
2017-08-27 20:00:00 26.5 25 Sur 33 Sur 0 -- -- 41
2017-08-27 19:00:00 27.9 22 Sur 36 Sur 0 -- -- 40
2017-08-27 18:00:00 29.2 23 Sudoeste 40 Sudoeste 0 -- -- 35
2017-08-27 17:00:00 29.9 23 Sur 39 Sudoeste 0 -- -- 32
2017-08-27 16:00:00 29.9 22 Sur 40 Sur 0 -- -- 25
2017-08-27 15:00:00 29.9 17 Sur 35 Sur 0 -- -- 31
2017-08-27 14:00:00 29.2 14 Sudoeste 28 Sudoeste 0 -- -- 41
2017-08-27 13:00:00 26.2 9 Oeste 22 Noroeste 0 -- -- 53
2017-08-27 12:00:00 23.7 12 Noroeste 19 Noroeste 0 -- -- 60
2017-08-27 11:00:00 22.7 6 Noroeste 13 Noroeste 0 -- -- 65
2017-08-27 10:00:00 20.6 3 Nordeste 23 Noroeste 0 -- -- 71
2017-08-27 09:00:00 19.4 10 Noroeste 22 Oeste 0 -- -- 77
2017-08-27 08:00:00 19.4 15 Oeste 35 Noroeste 0 -- -- 76
2017-08-27 07:00:00 20.9 19 Sudeste 37 Este 0 -- -- 59
2017-08-27 06:00:00 20.5 6 Nordeste 20 Noroeste 0 -- -- 64
2017-08-27 05:00:00 20.8 11 Oeste 23 Oeste 0 -- -- 61
2017-08-27 04:00:00 21.6 5 Nordeste 22 Oeste 0 -- -- 57
2017-08-27 03:00:00 22.5 13 Noroeste 21 Noroeste 0 -- -- 52
2017-08-27 02:00:00 23.9 10 Oeste 17 Noroeste 0 -- -- 39
2017-08-27 01:00:00 24.8 9 Oeste 20 Oeste 0 -- -- 37
2017-08-27 00:00:00 26.1 9 Noroeste 22 Oeste 0 -- -- 40
2017-08-26 23:00:00 26.8 2 Noroeste 15 Sudoeste 0 -- -- 53
2017-08-26 22:00:00 27.1 12 Sudoeste 21 Sudoeste 0 -- -- 50
2017-08-26 21:00:00 28.3 14 Sudoeste 28 Sur 0 -- -- 45
2017-08-26 20:00:00 29.9 20 Sur 31 Sudoeste 0 -- -- 42
2017-08-26 19:00:00 30.5 13 Sudoeste 27 Sur 0 -- -- 40
2017-08-26 18:00:00 31.1 17 Oeste 38 Sur 0 -- -- 42
2017-08-26 17:00:00 33.4 22 Sur 41 Sur 0 -- -- 26
2017-08-26 16:00:00 33.8 21 Sudeste 39 Este 0 -- -- 25
2017-08-26 15:00:00 31.4 14 Sudeste 44 Sudoeste 0 -- -- 32
2017-08-26 14:00:00 32 15 Sur 27 Sur 0 -- -- 30
2017-08-26 13:00:00 31.1 12 Sudeste 26 Este 0 -- -- 31
2017-08-26 12:00:00 28.3 17 Este 26 Este 0 -- -- 35
2017-08-26 11:00:00 25.9 15 Nordeste 30 Nordeste 0 -- -- 40
2017-08-26 10:00:00 23.9 8 Este 13 Este 0 -- -- 43
2017-08-26 09:00:00 22.5 4 Nordeste 18 Noroeste 0 -- -- 41
2017-08-26 08:00:00 21.5 8 Sudoeste 13 Noroeste 0 -- -- 45
2017-08-26 07:00:00 21.8 10 Noroeste 18 Noroeste 0 -- -- 45
2017-08-26 06:00:00 22.5 3 Noroeste 24 Este 0 -- -- 48
2017-08-26 05:00:00 23 0 Calma 6 Este 0 -- -- 49
2017-08-26 04:00:00 23.8 3 Sur 13 Este 0 -- -- 48
2017-08-26 03:00:00 23.6 0 Calma 5 Sudeste 0 -- -- 46
2017-08-26 02:00:00 24 4 Sudeste 6 Este 0 -- -- 47
2017-08-26 01:00:00 24.6 4 Este 6 Sudeste 0 -- -- 44
2017-08-26 00:00:00 25.4 3 Sudoeste 13 Sur 0 -- -- 40
2017-08-25 23:00:00 26.1 7 Sur 10 Sudoeste 0 -- -- 39
2017-08-25 22:00:00 27 11 Sur 29 Sur 0 -- -- 39
2017-08-25 21:00:00 28.8 27 Sur 31 Sur 0 -- -- 29
2017-08-25 20:00:00 30.1 26 Sur 33 Sur 0 -- -- 31
2017-08-25 19:00:00 32 23 Sur 31 Sur 0 -- -- 30
2017-08-25 18:00:00 33.4 18 Sur 31 Sur 0 -- -- 26
2017-08-25 17:00:00 35.4 11 Sur 24 Sudeste 0 -- -- 22
2017-08-25 16:00:00 35.9 8 Sudoeste 25 Oeste 0 -- -- 17
2017-08-25 15:00:00 34.8 11 Sur 22 Sur 0 -- -- 23
2017-08-25 14:00:00 33.2 6 Oeste 17 Oeste 0 -- -- 26
2017-08-25 13:00:00 31.5 6 Sur 12 Sudeste 0 -- -- 32
2017-08-25 12:00:00 25.7 3 Norte 14 Noroeste 0 -- -- 44
2017-08-25 11:00:00 23.9 10 Noroeste 15 Noroeste 0 -- -- 49
2017-08-25 10:00:00 22 4 Oeste 10 Noroeste 0 -- -- 52
2017-08-25 09:00:00 19.7 6 Noroeste 16 Noroeste 0 -- -- 61
2017-08-25 08:00:00 19.5 8 Noroeste 15 Noroeste 0 -- -- 61
2017-08-25 07:00:00 20.2 6 Noroeste 12 Noroeste 0 -- -- 57
2017-08-25 06:00:00 20.5 5 Oeste 17 Noroeste 0 -- -- 56
2017-08-25 05:00:00 20.9 11 Noroeste 18 Noroeste 0 -- -- 56
2017-08-25 04:00:00 22 13 Noroeste 21 Noroeste 0 -- -- 53
2017-08-25 03:00:00 22.8 14 Noroeste 22 Noroeste 0 -- -- 51
2017-08-25 02:00:00 23.8 13 Noroeste 21 Noroeste 0 -- -- 46
2017-08-25 01:00:00 25.2 11 Noroeste 20 Noroeste 0 -- -- 37
2017-08-25 00:00:00 26.9 9 Noroeste 14 Noroeste 0 -- -- 29